Silver Springs, Nevada
Current Conditions -  °F | °C
As of 7:56 AM on Monday 26 Jan 2015 (Local Time) from KNFL Reporting Station
Broken Clouds Broken Clouds  
Wind Chill: 25°   Ceiling: 28000
Heat Index: 25°   Visibility: 10mi
Dew Point: 16°   Wind: 0mph
Humidity: 69%   Direction: NA
Pressure: 30.23"   Gusts: NA
Location:  39.42°N, 119.23°W
Report Text: KNFL 261556Z 00000KT 10SM FEW180 SCT200 BKN280 M04/M09 A3023 RMK AO2 SLP200 T10391089
Loading
Personal Weather Stations






























Interactive Weather Map New forecast layout! Learn more

10-Day Weather Forecast

Advertisements
Track Severe Weather on mobile